sensor_id;sensor_type;location;lat;lon;timestamp;P1;durP1;ratioP1;P2;durP2;ratioP2
20884;SDS011;10602;48.000;9.654;2023-07-22T02:30:40;4.37;;;2.40;;
20884;SDS011;10602;48.000;9.654;2023-07-22T02:33:08;5.43;;;3.20;;
20884;SDS011;10602;48.000;9.654;2023-07-22T02:35:35;6.17;;;2.40;;
20884;SDS011;10602;48.000;9.654;2023-07-22T02:38:03;3.20;;;2.33;;
20884;SDS011;10602;48.000;9.654;2023-07-22T02:40:33;3.00;;;2.00;;
20884;SDS011;10602;48.000;9.654;2023-07-22T02:43:01;5.17;;;2.70;;
20884;SDS011;10602;48.000;9.654;2023-07-22T02:45:29;3.27;;;2.53;;
20884;SDS011;10602;48.000;9.654;2023-07-22T02:47:57;4.50;;;2.60;;
20884;SDS011;10602;48.000;9.654;2023-07-22T02:50:24;6.10;;;2.40;;
20884;SDS011;10602;48.000;9.654;2023-07-22T02:52:52;3.73;;;2.50;;
20884;SDS011;10602;48.000;9.654;2023-07-22T02:55:20;4.10;;;2.40;;
20884;SDS011;10602;48.000;9.654;2023-07-22T02:57:47;4.30;;;2.43;;
20884;SDS011;10602;48.000;9.654;2023-07-22T03:00:16;3.03;;;2.50;;
20884;SDS011;10602;48.000;9.654;2023-07-22T03:02:51;5.53;;;2.50;;
20884;SDS011;10602;48.000;9.654;2023-07-22T03:05:19;3.77;;;2.20;;
20884;SDS011;10602;48.000;9.654;2023-07-22T03:07:47;3.13;;;2.20;;
20884;SDS011;10602;48.000;9.654;2023-07-22T03:10:15;3.30;;;2.37;;
20884;SDS011;10602;48.000;9.654;2023-07-22T03:12:43;5.23;;;2.50;;
20884;SDS011;10602;48.000;9.654;2023-07-22T03:15:10;2.77;;;2.10;;
20884;SDS011;10602;48.000;9.654;2023-07-22T03:17:39;2.30;;;2.00;;
20884;SDS011;10602;48.000;9.654;2023-07-22T03:20:08;3.77;;;2.30;;
20884;SDS011;10602;48.000;9.654;2023-07-22T03:22:38;4.70;;;2.33;;
20884;SDS011;10602;48.000;9.654;2023-07-22T03:25:05;4.03;;;2.07;;
20884;SDS011;10602;48.000;9.654;2023-07-22T03:27:35;3.67;;;2.20;;
20884;SDS011;10602;48.000;9.654;2023-07-22T03:30:06;2.97;;;2.20;;
20884;SDS011;10602;48.000;9.654;2023-07-22T03:32:34;6.83;;;2.30;;
20884;SDS011;10602;48.000;9.654;2023-07-22T03:35:01;4.17;;;2.60;;
20884;SDS011;10602;48.000;9.654;2023-07-22T03:37:29;3.23;;;2.50;;
20884;SDS011;10602;48.000;9.654;2023-07-22T03:39:57;3.00;;;2.70;;
20884;SDS011;10602;48.000;9.654;2023-07-22T03:42:25;4.60;;;2.70;;
20884;SDS011;10602;48.000;9.654;2023-07-22T03:44:52;2.67;;;2.27;;
20884;SDS011;10602;48.000;9.654;2023-07-22T03:47:20;3.30;;;2.30;;
20884;SDS011;10602;48.000;9.654;2023-07-22T03:49:47;6.47;;;2.70;;
20884;SDS011;10602;48.000;9.654;2023-07-22T03:52:15;4.10;;;2.73;;
20884;SDS011;10602;48.000;9.654;2023-07-22T03:54:44;3.63;;;2.40;;
20884;SDS011;10602;48.000;9.654;2023-07-22T03:57:11;3.70;;;3.00;;
20884;SDS011;10602;48.000;9.654;2023-07-22T03:59:39;3.30;;;2.50;;
20884;SDS011;10602;48.000;9.654;2023-07-22T04:02:07;3.13;;;2.80;;
20884;SDS011;10602;48.000;9.654;2023-07-22T04:04:34;2.97;;;2.40;;
20884;SDS011;10602;48.000;9.654;2023-07-22T04:07:02;5.20;;;2.33;;
20884;SDS011;10602;48.000;9.654;2023-07-22T04:09:31;2.73;;;2.23;;
20884;SDS011;10602;48.000;9.654;2023-07-22T04:11:58;3.90;;;2.40;;
20884;SDS011;10602;48.000;9.654;2023-07-22T04:14:26;3.63;;;2.30;;
20884;SDS011;10602;48.000;9.654;2023-07-22T04:16:53;3.23;;;2.20;;
20884;SDS011;10602;48.000;9.654;2023-07-22T04:19:21;2.60;;;2.30;;
20884;SDS011;10602;48.000;9.654;2023-07-22T04:21:48;2.50;;;2.20;;
20884;SDS011;10602;48.000;9.654;2023-07-22T04:24:16;3.33;;;2.60;;
20884;SDS011;10602;48.000;9.654;2023-07-22T04:26:44;2.93;;;2.63;;
20884;SDS011;10602;48.000;9.654;2023-07-22T04:29:11;3.90;;;2.40;;
20884;SDS011;10602;48.000;9.654;2023-07-22T04:31:39;3.13;;;2.47;;
20884;SDS011;10602;48.000;9.654;2023-07-22T04:34:06;3.10;;;2.77;;
20884;SDS011;10602;48.000;9.654;2023-07-22T04:36:34;2.97;;;2.50;;
20884;SDS011;10602;48.000;9.654;2023-07-22T04:39:02;3.53;;;2.73;;
20884;SDS011;10602;48.000;9.654;2023-07-22T04:41:31;2.80;;;2.43;;
20884;SDS011;10602;48.000;9.654;2023-07-22T04:43:59;2.87;;;2.43;;
20884;SDS011;10602;48.000;9.654;2023-07-22T04:46:27;7.37;;;3.83;;
20884;SDS011;10602;48.000;9.654;2023-07-22T04:48:54;11.70;;;3.53;;
20884;SDS011;10602;48.000;9.654;2023-07-22T04:51:24;5.20;;;3.10;;
20884;SDS011;10602;48.000;9.654;2023-07-22T04:53:51;5.03;;;3.40;;
20884;SDS011;10602;48.000;9.654;2023-07-22T04:56:19;4.90;;;3.40;;
20884;SDS011;10602;48.000;9.654;2023-07-22T04:58:46;17.23;;;4.33;;
20884;SDS011;10602;48.000;9.654;2023-07-22T05:01:17;26.37;;;4.53;;
20884;SDS011;10602;48.000;9.654;2023-07-22T05:03:44;32.93;;;4.83;;
20884;SDS011;10602;48.000;9.654;2023-07-22T05:06:12;27.87;;;4.37;;
20884;SDS011;10602;48.000;9.654;2023-07-22T05:08:39;16.50;;;4.40;;
20884;SDS011;10602;48.000;9.654;2023-07-22T05:11:07;13.57;;;4.43;;
20884;SDS011;10602;48.000;9.654;2023-07-22T05:13:34;27.07;;;4.63;;
20884;SDS011;10602;48.000;9.654;2023-07-22T05:16:02;22.87;;;4.60;;
20884;SDS011;10602;48.000;9.654;2023-07-22T05:18:29;27.23;;;4.50;;
20884;SDS011;10602;48.000;9.654;2023-07-22T05:20:57;27.33;;;4.43;;
20884;SDS011;10602;48.000;9.654;2023-07-22T05:23:24;23.80;;;4.37;;
20884;SDS011;10602;48.000;9.654;2023-07-22T05:25:53;22.37;;;4.07;;
20884;SDS011;10602;48.000;9.654;2023-07-22T05:28:20;15.23;;;3.53;;
20884;SDS011;10602;48.000;9.654;2023-07-22T05:30:48;19.37;;;3.73;;
20884;SDS011;10602;48.000;9.654;2023-07-22T05:33:15;25.40;;;3.77;;
20884;SDS011;10602;48.000;9.654;2023-07-22T05:35:43;14.47;;;3.43;;
20884;SDS011;10602;48.000;9.654;2023-07-22T05:38:10;10.03;;;3.57;;
20884;SDS011;10602;48.000;9.654;2023-07-22T05:40:38;12.97;;;3.40;;
20884;SDS011;10602;48.000;9.654;2023-07-22T05:43:05;19.07;;;3.73;;
20884;SDS011;10602;48.000;9.654;2023-07-22T05:45:33;23.87;;;3.93;;
20884;SDS011;10602;48.000;9.654;2023-07-22T05:48:00;16.53;;;3.40;;
20884;SDS011;10602;48.000;9.654;2023-07-22T05:50:28;13.43;;;4.00;;
20884;SDS011;10602;48.000;9.654;2023-07-22T05:52:55;34.70;;;4.47;;
20884;SDS011;10602;48.000;9.654;2023-07-22T05:55:23;16.53;;;3.70;;
20884;SDS011;10602;48.000;9.654;2023-07-22T05:57:50;10.40;;;3.73;;
20884;SDS011;10602;48.000;9.654;2023-07-22T06:00:18;9.80;;;3.40;;
20884;SDS011;10602;48.000;9.654;2023-07-22T06:02:45;9.90;;;3.30;;
20884;SDS011;10602;48.000;9.654;2023-07-22T06:05:14;13.43;;;3.73;;
20884;SDS011;10602;48.000;9.654;2023-07-22T06:07:41;5.33;;;3.10;;
20884;SDS011;10602;48.000;9.654;2023-07-22T06:10:10;5.13;;;3.17;;
20884;SDS011;10602;48.000;9.654;2023-07-22T06:12:37;4.83;;;3.40;;
20884;SDS011;10602;48.000;9.654;2023-07-22T06:15:06;5.70;;;3.40;;
20884;SDS011;10602;48.000;9.654;2023-07-22T06:17:34;8.80;;;3.60;;
20884;SDS011;10602;48.000;9.654;2023-07-22T06:20:05;5.53;;;3.90;;
20884;SDS011;10602;48.000;9.654;2023-07-22T06:22:38;5.10;;;3.50;;
20884;SDS011;10602;48.000;9.654;2023-07-22T06:25:06;4.13;;;3.57;;
20884;SDS011;10602;48.000;9.654;2023-07-22T06:27:34;4.77;;;3.20;;
20884;SDS011;10602;48.000;9.654;2023-07-22T06:30:02;3.50;;;3.20;;
20884;SDS011;10602;48.000;9.654;2023-07-22T06:32:29;3.30;;;3.00;;
20884;SDS011;10602;48.000;9.654;2023-07-22T06:34:57;4.20;;;3.40;;
20884;SDS011;10602;48.000;9.654;2023-07-22T06:37:25;3.73;;;3.27;;
20884;SDS011;10602;48.000;9.654;2023-07-22T06:39:52;5.23;;;3.90;;
20884;SDS011;10602;48.000;9.654;2023-07-22T06:42:20;3.97;;;3.60;;
20884;SDS011;10602;48.000;9.654;2023-07-22T06:44:47;4.00;;;3.30;;
20884;SDS011;10602;48.000;9.654;2023-07-22T06:47:18;5.17;;;3.47;;
20884;SDS011;10602;48.000;9.654;2023-07-22T06:49:48;4.23;;;3.30;;
20884;SDS011;10602;48.000;9.654;2023-07-22T06:52:16;5.30;;;3.30;;
20884;SDS011;10602;48.000;9.654;2023-07-22T06:54:44;4.73;;;3.90;;
20884;SDS011;10602;48.000;9.654;2023-07-22T06:57:12;4.30;;;3.73;;
20884;SDS011;10602;48.000;9.654;2023-07-22T06:59:39;4.00;;;3.47;;
20884;SDS011;10602;48.000;9.654;2023-07-22T07:02:07;3.67;;;3.30;;
20884;SDS011;10602;48.000;9.654;2023-07-22T07:04:34;5.13;;;3.50;;
20884;SDS011;10602;48.000;9.654;2023-07-22T07:07:02;3.60;;;3.30;;
20884;SDS011;10602;48.000;9.654;2023-07-22T07:09:29;4.67;;;3.37;;
20884;SDS011;10602;48.000;9.654;2023-07-22T07:12:06;3.30;;;3.00;;
20884;SDS011;10602;48.000;9.654;2023-07-22T07:14:40;3.97;;;2.77;;
20884;SDS011;10602;48.000;9.654;2023-07-22T07:17:08;5.07;;;3.57;;
20884;SDS011;10602;48.000;9.654;2023-07-22T07:20:05;3.50;;;2.77;;
20884;SDS011;10602;48.000;9.654;2023-07-22T07:22:33;3.37;;;2.73;;
20884;SDS011;10602;48.000;9.654;2023-07-22T07:28:11;3.63;;;2.67;;
20884;SDS011;10602;48.000;9.654;2023-07-22T07:30:59;3.17;;;2.77;;
20884;SDS011;10602;48.000;9.654;2023-07-22T07:33:28;3.93;;;2.53;;
20884;SDS011;10602;48.000;9.654;2023-07-22T07:35:57;3.43;;;2.13;;
20884;SDS011;10602;48.000;9.654;2023-07-22T07:38:34;3.33;;;2.17;;
20884;SDS011;10602;48.000;9.654;2023-07-22T07:41:03;2.50;;;1.90;;
20884;SDS011;10602;48.000;9.654;2023-07-22T07:43:37;2.57;;;2.03;;
20884;SDS011;10602;48.000;9.654;2023-07-22T07:46:12;3.20;;;1.97;;
20884;SDS011;10602;48.000;9.654;2023-07-22T07:48:47;3.67;;;2.13;;
20884;SDS011;10602;48.000;9.654;2023-07-22T07:51:19;4.33;;;2.30;;
20884;SDS011;10602;48.000;9.654;2023-07-22T07:53:47;2.60;;;2.17;;
20884;SDS011;10602;48.000;9.654;2023-07-22T07:56:16;3.50;;;2.50;;
20884;SDS011;10602;48.000;9.654;2023-07-22T07:58:46;4.27;;;2.27;;
20884;SDS011;10602;48.000;9.654;2023-07-22T08:01:22;3.07;;;2.77;;
20884;SDS011;10602;48.000;9.654;2023-07-22T08:03:52;3.47;;;2.90;;
20884;SDS011;10602;48.000;9.654;2023-07-22T08:06:20;2.97;;;2.60;;
20884;SDS011;10602;48.000;9.654;2023-07-22T08:08:55;2.50;;;2.30;;
20884;SDS011;10602;48.000;9.654;2023-07-22T08:11:22;2.80;;;2.43;;
20884;SDS011;10602;48.000;9.654;2023-07-22T08:13:49;4.37;;;2.40;;
20884;SDS011;10602;48.000;9.654;2023-07-22T08:16:18;4.90;;;2.57;;
20884;SDS011;10602;48.000;9.654;2023-07-22T08:18:45;3.80;;;2.20;;
20884;SDS011;10602;48.000;9.654;2023-07-22T08:21:15;3.90;;;2.40;;
20884;SDS011;10602;48.000;9.654;2023-07-22T08:23:45;2.43;;;2.00;;
20884;SDS011;10602;48.000;9.654;2023-07-22T08:26:28;3.07;;;2.20;;
20884;SDS011;10602;48.000;9.654;2023-07-22T08:29:05;3.33;;;1.90;;
20884;SDS011;10602;48.000;9.654;2023-07-22T08:31:42;4.60;;;2.57;;
20884;SDS011;10602;48.000;9.654;2023-07-22T08:34:19;2.10;;;1.90;;
20884;SDS011;10602;48.000;9.654;2023-07-22T08:36:52;3.07;;;2.20;;
20884;SDS011;10602;48.000;9.654;2023-07-22T08:39:20;2.60;;;2.00;;
20884;SDS011;10602;48.000;9.654;2023-07-22T08:41:50;2.83;;;1.93;;
20884;SDS011;10602;48.000;9.654;2023-07-22T08:44:21;2.40;;;1.90;;
20884;SDS011;10602;48.000;9.654;2023-07-22T08:47:01;3.10;;;2.10;;
20884;SDS011;10602;48.000;9.654;2023-07-22T08:52:30;3.73;;;2.17;;
20884;SDS011;10602;48.000;9.654;2023-07-22T08:55:01;3.00;;;2.00;;
20884;SDS011;10602;48.000;9.654;2023-07-22T08:57:29;2.33;;;1.87;;
20884;SDS011;10602;48.000;9.654;2023-07-22T09:00:01;2.10;;;1.80;;
20884;SDS011;10602;48.000;9.654;2023-07-22T09:02:35;3.13;;;1.80;;
20884;SDS011;10602;48.000;9.654;2023-07-22T09:05:10;2.17;;;1.97;;
20884;SDS011;10602;48.000;9.654;2023-07-22T09:07:43;2.53;;;1.97;;
20884;SDS011;10602;48.000;9.654;2023-07-22T09:10:15;2.83;;;1.90;;
